createdAt,value
2019-06-20T00:00:08.197Z,100135
2019-06-20T00:01:07.639Z,100141
2019-06-20T00:02:07.848Z,100143
2019-06-20T00:03:08.139Z,100143
2019-06-20T00:04:07.511Z,100145
2019-06-20T00:05:08.109Z,100147
2019-06-20T00:06:07.598Z,100149
2019-06-20T00:07:07.882Z,100148
2019-06-20T00:08:08.224Z,100150
2019-06-20T00:09:07.634Z,100156
2019-06-20T00:10:08.256Z,100151
2019-06-20T00:11:07.584Z,100154
2019-06-20T00:12:07.893Z,100148
2019-06-20T00:13:08.158Z,100144
2019-06-20T00:14:07.482Z,100139
2019-06-20T00:15:07.910Z,100148
2019-06-20T00:16:08.290Z,100148
2019-06-20T00:17:07.543Z,100147
2019-06-20T00:18:07.859Z,100144
2019-06-20T00:19:08.242Z,100149
2019-06-20T00:20:07.953Z,100148
2019-06-20T00:21:07.600Z,100157
2019-06-20T00:22:08.403Z,100158
2019-06-20T00:23:07.757Z,100166
2019-06-20T00:24:08.216Z,100163
2019-06-20T00:25:07.786Z,100159
2019-06-20T00:26:08.090Z,100165
2019-06-20T00:27:07.400Z,100156
2019-06-20T00:28:07.745Z,100153
2019-06-20T00:29:08.114Z,100151
2019-06-20T00:30:07.834Z,100154
2019-06-20T00:31:08.225Z,100160
2019-06-20T00:32:07.487Z,100161
2019-06-20T00:33:07.877Z,100161
2019-06-20T00:34:08.164Z,100163
2019-06-20T00:35:07.694Z,100167
2019-06-20T00:36:07.989Z,100167
2019-06-20T00:37:07.258Z,100168
2019-06-20T00:38:07.515Z,100156
2019-06-20T00:39:07.960Z,100159
2019-06-20T00:40:07.582Z,100160
2019-06-20T00:41:08.082Z,100161
2019-06-20T00:42:07.476Z,100160
2019-06-20T00:43:21.821Z,100166
2019-06-20T00:44:08.124Z,100160
2019-06-20T00:45:07.515Z,100160
2019-06-20T00:46:07.866Z,100165
2019-06-20T00:47:08.173Z,100161
2019-06-20T00:48:07.715Z,100167
2019-06-20T00:49:07.978Z,100165
2019-06-20T00:50:07.628Z,100170
2019-06-20T00:51:07.976Z,100170
2019-06-20T00:52:07.368Z,100176
2019-06-20T00:53:07.757Z,100172
2019-06-20T00:54:08.060Z,100174
2019-06-20T00:55:07.571Z,100175
2019-06-20T00:56:08.005Z,100180
2019-06-20T00:57:07.297Z,100180
2019-06-20T00:58:07.592Z,100190
2019-06-20T00:59:07.901Z,100187
2019-06-20T01:00:08.530Z,100180
2019-06-20T01:01:07.864Z,100186
2019-06-20T01:02:08.143Z,100190
2019-06-20T01:03:07.635Z,100183
2019-06-20T01:04:08.046Z,100189
2019-06-20T01:05:07.583Z,100185
2019-06-20T01:06:08.319Z,100189
2019-06-20T01:07:07.717Z,100179
2019-06-20T01:08:08.109Z,100174
2019-06-20T01:09:07.526Z,100176
2019-06-20T01:10:08.050Z,100173
2019-06-20T01:11:07.527Z,100181
2019-06-20T01:12:07.869Z,100176
2019-06-20T01:13:08.137Z,100169
2019-06-20T01:14:07.451Z,100174
2019-06-20T01:15:07.989Z,100174
2019-06-20T01:16:07.310Z,100165
2019-06-20T01:17:07.644Z,100171
2019-06-20T01:18:07.964Z,100173
2019-06-20T01:19:07.222Z,100174
2019-06-20T01:20:07.956Z,100174
2019-06-20T01:21:07.300Z,100179
2019-06-20T01:22:07.661Z,100171
2019-06-20T01:23:07.999Z,100164
2019-06-20T01:24:07.317Z,100173
2019-06-20T01:25:07.755Z,100176
2019-06-20T01:26:08.027Z,100171
2019-06-20T01:27:07.420Z,100166
2019-06-20T01:28:07.776Z,100165
2019-06-20T01:29:08.104Z,100163
2019-06-20T01:30:07.740Z,100174
2019-06-20T01:31:08.055Z,100171
2019-06-20T01:32:07.480Z,100173
2019-06-20T01:33:07.866Z,100175
2019-06-20T01:34:08.186Z,100178
2019-06-20T01:35:07.693Z,100176
2019-06-20T01:36:08.055Z,100179
2019-06-20T01:37:07.299Z,100180
2019-06-20T01:38:07.652Z,100181
2019-06-20T01:39:08.063Z,100179
2019-06-20T01:40:07.587Z,100177
2019-06-20T01:41:10.562Z,100176
2019-06-20T01:42:07.844Z,100175
2019-06-20T01:43:08.273Z,100185
2019-06-20T01:44:07.617Z,100176
2019-06-20T01:45:08.023Z,100176
2019-06-20T01:46:07.393Z,100185
2019-06-20T01:47:07.710Z,100192
2019-06-20T01:48:08.016Z,100193
2019-06-20T01:49:07.301Z,100193
2019-06-20T01:50:07.936Z,100186
2019-06-20T01:51:07.241Z,100197
2019-06-20T01:52:07.660Z,100199
2019-06-20T01:53:07.950Z,100199
2019-06-20T01:54:07.308Z,100199
2019-06-20T01:55:07.834Z,100195
2019-06-20T01:56:08.117Z,100197
2019-06-20T01:57:07.431Z,100206
2019-06-20T01:58:07.741Z,100201
2019-06-20T01:59:08.341Z,100201
2019-06-20T02:00:08.105Z,100199
2019-06-20T02:01:07.545Z,100197
2019-06-20T02:02:07.902Z,100203
2019-06-20T02:03:07.292Z,100203
2019-06-20T02:04:07.656Z,100193
2019-06-20T02:05:08.075Z,100204
2019-06-20T02:06:07.429Z,100196
2019-06-20T02:07:07.699Z,100198
2019-06-20T02:08:08.029Z,100208
2019-06-20T02:09:07.520Z,100202
2019-06-20T02:10:08.054Z,100206
2019-06-20T02:11:07.428Z,100203
2019-06-20T02:12:07.802Z,100200
2019-06-20T02:13:08.329Z,100199
2019-06-20T02:14:11.585Z,100194
2019-06-20T02:15:08.150Z,100201
2019-06-20T02:16:07.409Z,100199
2019-06-20T02:17:07.781Z,100204
2019-06-20T02:18:08.146Z,100197
2019-06-20T02:19:07.477Z,100191
2019-06-20T02:20:08.024Z,100194
2019-06-20T02:21:07.399Z,100186
2019-06-20T02:22:07.716Z,100186
2019-06-20T02:23:08.076Z,100188
2019-06-20T02:24:07.364Z,100191
2019-06-20T02:25:07.757Z,100186
2019-06-20T02:26:07.419Z,100191
2019-06-20T02:27:07.768Z,100193
2019-06-20T02:28:08.055Z,100187
2019-06-20T02:29:07.468Z,100194
2019-06-20T02:30:08.061Z,100191
2019-06-20T02:31:07.490Z,100190
2019-06-20T02:32:07.825Z,100185
2019-06-20T02:33:08.148Z,100190
2019-06-20T02:34:07.534Z,100190
2019-06-20T02:35:07.963Z,100194
2019-06-20T02:36:07.385Z,100194
2019-06-20T02:37:07.722Z,100203
2019-06-20T02:38:07.318Z,100199
2019-06-20T02:39:07.700Z,100204
2019-06-20T02:40:08.394Z,100209
2019-06-20T02:41:07.723Z,100204
2019-06-20T02:42:08.151Z,100207
2019-06-20T02:43:07.433Z,100213
2019-06-20T02:44:24.641Z,100212
2019-06-20T02:45:07.759Z,100205
2019-06-20T02:46:08.067Z,100216
2019-06-20T02:47:07.418Z,100212
2019-06-20T02:48:07.765Z,100216
2019-06-20T02:49:08.115Z,100213
2019-06-20T02:50:07.656Z,100213
2019-06-20T02:51:07.981Z,100209
2019-06-20T02:52:07.281Z,100210
2019-06-20T02:53:07.647Z,100211
2019-06-20T02:54:08.055Z,100216
2019-06-20T02:55:07.458Z,100211
2019-06-20T02:56:07.921Z,100219
2019-06-20T02:57:08.204Z,100217
2019-06-20T02:58:07.509Z,100210
2019-06-20T02:59:07.855Z,100211
2019-06-20T03:00:08.408Z,100210
2019-06-20T03:01:07.705Z,100213
2019-06-20T03:02:08.039Z,100217
2019-06-20T03:03:07.343Z,100214
2019-06-20T03:04:07.789Z,100218
2019-06-20T03:05:08.184Z,100222
2019-06-20T03:06:07.720Z,100215
2019-06-20T03:07:08.092Z,100214
2019-06-20T03:08:07.485Z,100220
2019-06-20T03:09:07.825Z,100215
2019-06-20T03:10:08.363Z,100216
2019-06-20T03:11:07.655Z,100220
2019-06-20T03:12:07.922Z,100225
2019-06-20T03:13:10.880Z,100212
2019-06-20T03:14:08.174Z,100224
2019-06-20T03:15:07.716Z,100217
2019-06-20T03:16:07.995Z,100216
2019-06-20T03:17:07.431Z,100231
2019-06-20T03:18:07.806Z,100225
2019-06-20T03:19:08.104Z,100226
2019-06-20T03:20:07.643Z,100227
2019-06-20T03:21:07.975Z,100225
2019-06-20T03:22:07.293Z,100224
2019-06-20T03:23:07.771Z,100223
2019-06-20T03:24:08.143Z,100224
2019-06-20T03:25:07.822Z,100233
2019-06-20T03:26:08.203Z,100232
2019-06-20T03:27:07.455Z,100232
2019-06-20T03:28:07.847Z,100229
2019-06-20T03:29:07.364Z,100220
2019-06-20T03:30:07.989Z,100219
2019-06-20T03:31:07.420Z,100228
2019-06-20T03:32:07.825Z,100220
2019-06-20T03:33:08.215Z,100227
2019-06-20T03:34:07.633Z,100234
2019-06-20T03:35:08.250Z,100221
2019-06-20T03:36:07.565Z,100225
2019-06-20T03:37:07.889Z,100237
2019-06-20T03:38:08.247Z,100230
2019-06-20T03:39:07.652Z,100228
2019-06-20T03:40:08.231Z,100224
2019-06-20T03:41:07.570Z,100229
2019-06-20T03:42:07.968Z,100225
2019-06-20T03:43:07.333Z,100236
2019-06-20T03:44:07.758Z,100231
2019-06-20T03:45:08.217Z,100238
2019-06-20T03:46:07.488Z,100239
2019-06-20T03:47:07.841Z,100238
2019-06-20T03:48:08.218Z,100243
2019-06-20T03:49:07.549Z,100237
2019-06-20T03:50:08.083Z,100242
2019-06-20T03:51:07.921Z,100239
2019-06-20T03:52:07.220Z,100237
2019-06-20T03:53:07.583Z,100242
2019-06-20T03:54:08.085Z,100247
2019-06-20T03:55:07.531Z,100247
2019-06-20T03:56:07.801Z,100248
2019-06-20T03:57:08.135Z,100257
2019-06-20T03:58:07.441Z,100254
2019-06-20T03:59:07.840Z,100256
2019-06-20T04:00:08.601Z,100262
2019-06-20T04:01:08.112Z,100260
2019-06-20T04:02:07.455Z,100257
2019-06-20T04:03:07.799Z,100266
2019-06-20T04:04:08.138Z,100262
2019-06-20T04:05:07.826Z,100275
2019-06-20T04:06:08.132Z,100262
2019-06-20T04:07:07.467Z,100266
2019-06-20T04:08:07.750Z,100275
2019-06-20T04:09:08.024Z,100272
2019-06-20T04:10:07.933Z,100271
2019-06-20T04:11:08.229Z,100273
2019-06-20T04:12:07.558Z,100268
2019-06-20T04:13:07.845Z,100271
2019-06-20T04:14:08.182Z,100263
2019-06-20T04:15:22.968Z,100272
2019-06-20T04:16:07.394Z,100286
2019-06-20T04:17:07.684Z,100278
2019-06-20T04:18:07.952Z,100280
2019-06-20T04:19:07.255Z,100278
2019-06-20T04:20:07.896Z,100288
2019-06-20T04:21:08.162Z,100286
2019-06-20T04:22:07.495Z,100284
2019-06-20T04:23:07.809Z,100290
2019-06-20T04:24:08.124Z,100290
2019-06-20T04:25:07.674Z,100286
2019-06-20T04:26:07.480Z,100290
2019-06-20T04:27:07.775Z,100292
2019-06-20T04:28:08.158Z,100296
2019-06-20T04:29:07.433Z,100287
2019-06-20T04:30:08.416Z,100284
2019-06-20T04:31:07.637Z,100283
2019-06-20T04:32:07.957Z,100280
2019-06-20T04:33:07.227Z,100285
2019-06-20T04:34:07.496Z,100285
2019-06-20T04:35:07.946Z,100283
2019-06-20T04:36:07.610Z,100287
2019-06-20T04:37:07.858Z,100285
2019-06-20T04:38:08.165Z,100283
2019-06-20T04:39:23.149Z,100284
2019-06-20T04:40:07.911Z,100277
2019-06-20T04:41:08.306Z,100280
2019-06-20T04:42:07.609Z,100284
2019-06-20T04:43:07.935Z,100286
2019-06-20T04:44:08.249Z,100284
2019-06-20T04:45:07.850Z,100288
2019-06-20T04:46:07.675Z,100289
2019-06-20T04:47:07.997Z,100283
2019-06-20T04:48:07.315Z,100283
2019-06-20T04:49:07.650Z,100294
2019-06-20T04:50:08.359Z,100297
2019-06-20T04:51:07.785Z,100288
2019-06-20T04:52:08.083Z,100292
2019-06-20T04:53:07.329Z,100288
2019-06-20T04:54:07.626Z,100296
2019-06-20T04:55:08.139Z,100298
2019-06-20T04:56:10.123Z,100296
2019-06-20T04:57:07.439Z,100291
2019-06-20T04:58:07.726Z,100299
2019-06-20T04:59:07.979Z,100298
2019-06-20T05:00:07.649Z,100300
2019-06-20T05:01:07.749Z,100313
2019-06-20T05:02:08.094Z,100308
2019-06-20T05:03:07.397Z,100314
2019-06-20T05:04:07.717Z,100315
2019-06-20T05:05:08.234Z,100316
2019-06-20T05:06:07.752Z,100310
2019-06-20T05:07:08.039Z,100323
2019-06-20T05:08:07.434Z,100323
2019-06-20T05:09:07.718Z,100322
2019-06-20T05:10:08.471Z,100324
2019-06-20T05:11:07.939Z,100319
2019-06-20T05:12:07.304Z,100319
2019-06-20T05:13:07.546Z,100326
2019-06-20T05:14:08.023Z,100332
2019-06-20T05:15:07.479Z,100322
2019-06-20T05:16:07.889Z,100330
2019-06-20T05:17:11.589Z,100335
2019-06-20T05:18:07.876Z,100326
2019-06-20T05:19:08.182Z,100334
2019-06-20T05:20:07.793Z,100324
2019-06-20T05:21:08.254Z,100332
2019-06-20T05:22:07.860Z,100335
2019-06-20T05:23:08.212Z,100337
2019-06-20T05:24:07.537Z,100337
2019-06-20T05:25:08.159Z,100340
2019-06-20T05:26:07.389Z,100346
2019-06-20T05:27:07.777Z,100340
2019-06-20T05:28:08.118Z,100345
2019-06-20T05:29:09.829Z,100345
2019-06-20T05:30:08.392Z,100356
2019-06-20T05:31:07.709Z,100340
2019-06-20T05:32:08.092Z,100351
2019-06-20T05:33:07.441Z,100358
2019-06-20T05:34:07.734Z,100353
2019-06-20T05:35:08.196Z,100352
2019-06-20T05:36:07.549Z,100352
2019-06-20T05:37:07.943Z,100344
2019-06-20T05:38:07.247Z,100354
2019-06-20T05:39:07.579Z,100358
2019-06-20T05:40:08.170Z,100358
2019-06-20T05:41:07.525Z,100356
2019-06-20T05:42:07.968Z,100356
2019-06-20T05:43:07.481Z,100358
2019-06-20T05:44:07.939Z,100350
2019-06-20T05:45:08.341Z,100364
2019-06-20T05:46:15.053Z,100356
2019-06-20T05:47:17.713Z,100367
2019-06-20T05:48:09.044Z,100361
2019-06-20T05:49:07.371Z,100363
2019-06-20T05:50:08.260Z,100359
2019-06-20T05:51:07.704Z,100358
2019-06-20T05:52:08.096Z,100367
2019-06-20T05:53:07.482Z,100366
2019-06-20T05:54:08.793Z,100367
2019-06-20T05:55:08.390Z,100369
2019-06-20T05:56:08.563Z,100366
2019-06-20T05:57:09.072Z,100358
2019-06-20T05:58:07.472Z,100365
2019-06-20T05:59:08.214Z,100365
2019-06-20T06:00:08.333Z,100370
2019-06-20T06:01:07.810Z,100363
2019-06-20T06:02:09.195Z,100364
2019-06-20T06:03:15.998Z,100360
2019-06-20T06:04:07.405Z,100362
2019-06-20T06:05:07.894Z,100377
2019-06-20T06:06:08.204Z,100372
2019-06-20T06:07:07.886Z,100365
2019-06-20T06:08:08.202Z,100372
2019-06-20T06:09:07.599Z,100363
2019-06-20T06:10:10.493Z,100382
2019-06-20T06:11:08.189Z,100365
2019-06-20T06:12:07.459Z,100374
2019-06-20T06:13:08.334Z,100375
2019-06-20T06:14:07.751Z,100371
2019-06-20T06:15:09.903Z,100367
2019-06-20T06:16:07.279Z,100366
2019-06-20T06:17:07.765Z,100365
2019-06-20T06:18:08.058Z,100362
2019-06-20T06:19:07.420Z,100356
2019-06-20T06:20:07.942Z,100363
2019-06-20T06:21:07.372Z,100359
2019-06-20T06:22:07.858Z,100365
2019-06-20T06:23:08.187Z,100362
2019-06-20T06:24:07.472Z,100363
2019-06-20T06:25:07.995Z,100360
2019-06-20T06:26:07.290Z,100367
2019-06-20T06:27:07.610Z,100363
2019-06-20T06:28:07.933Z,100362
2019-06-20T06:29:08.013Z,100361
2019-06-20T06:30:07.677Z,100369
2019-06-20T06:31:07.751Z,100372
2019-06-20T06:32:07.977Z,100371
2019-06-20T06:33:07.365Z,100368
2019-06-20T06:34:07.749Z,100367
2019-06-20T06:35:08.584Z,100374
2019-06-20T06:36:07.937Z,100364
2019-06-20T06:37:07.363Z,100369
2019-06-20T06:38:07.647Z,100373
2019-06-20T06:39:08.025Z,100378
2019-06-20T06:40:07.678Z,100358
2019-06-20T06:41:08.028Z,100365
2019-06-20T06:42:07.317Z,100367
2019-06-20T06:43:07.700Z,100375
2019-06-20T06:44:11.091Z,100377
2019-06-20T06:45:07.650Z,100368
2019-06-20T06:46:07.951Z,100373
2019-06-20T06:47:07.320Z,100371
2019-06-20T06:48:07.716Z,100372
2019-06-20T06:49:08.016Z,100372
2019-06-20T06:50:07.620Z,100375
2019-06-20T06:51:07.935Z,100374
2019-06-20T06:52:08.655Z,100376
2019-06-20T06:53:08.007Z,100376
2019-06-20T06:54:07.330Z,100381
2019-06-20T06:55:07.829Z,100375
2019-06-20T06:56:07.709Z,100367
2019-06-20T06:57:08.160Z,100373
2019-06-20T06:58:07.785Z,100363
2019-06-20T06:59:08.526Z,100366
2019-06-20T07:00:08.397Z,100367
2019-06-20T07:01:11.764Z,100369
2019-06-20T07:02:08.232Z,100370
2019-06-20T07:03:07.846Z,100369
2019-06-20T07:04:07.526Z,100368
2019-06-20T07:05:08.698Z,100374
2019-06-20T07:06:08.382Z,100380
2019-06-20T07:07:07.737Z,100376
2019-06-20T07:08:08.031Z,100372
2019-06-20T07:09:07.293Z,100376
2019-06-20T07:10:08.009Z,100375
2019-06-20T07:11:07.700Z,100376
2019-06-20T07:12:08.068Z,100383
2019-06-20T07:13:07.474Z,100381
2019-06-20T07:14:07.853Z,100378
2019-06-20T07:15:08.307Z,100373
2019-06-20T07:16:07.686Z,100391
2019-06-20T07:17:08.070Z,100388
2019-06-20T07:18:07.358Z,100389
2019-06-20T07:19:07.670Z,100384
2019-06-20T07:20:08.287Z,100375
2019-06-20T07:21:07.681Z,100377
2019-06-20T07:22:08.131Z,100380
2019-06-20T07:23:07.412Z,100371
2019-06-20T07:24:07.683Z,100369
2019-06-20T07:25:08.419Z,100379
2019-06-20T07:26:07.771Z,100382
2019-06-20T07:27:08.132Z,100382
2019-06-20T07:28:07.471Z,100381
2019-06-20T07:29:07.840Z,100380
2019-06-20T07:30:08.452Z,100388
2019-06-20T07:31:07.733Z,100384
2019-06-20T07:32:08.158Z,100386
2019-06-20T07:33:07.482Z,100384
2019-06-20T07:34:07.862Z,100391
2019-06-20T07:35:08.429Z,100374
2019-06-20T07:36:07.662Z,100386
2019-06-20T07:37:08.030Z,100377
2019-06-20T07:38:07.310Z,100385
2019-06-20T07:39:07.661Z,100388
2019-06-20T07:40:08.149Z,100391
2019-06-20T07:41:07.669Z,100388
2019-06-20T07:42:08.168Z,100390
2019-06-20T07:43:07.553Z,100391
2019-06-20T07:44:07.812Z,100394
2019-06-20T07:45:08.374Z,100389
2019-06-20T07:46:07.790Z,100390
2019-06-20T07:47:21.818Z,100384
2019-06-20T07:48:08.146Z,100391
2019-06-20T07:49:07.595Z,100390
2019-06-20T07:50:08.276Z,100392
2019-06-20T07:51:07.617Z,100395
2019-06-20T07:52:08.121Z,100386
2019-06-20T07:53:07.470Z,100392
2019-06-20T07:54:07.807Z,100388
2019-06-20T07:55:08.318Z,100387
2019-06-20T07:56:10.867Z,100393
2019-06-20T07:57:08.177Z,100394
2019-06-20T07:58:07.515Z,100395
2019-06-20T07:59:07.858Z,100396
2019-06-20T08:00:08.437Z,100397
2019-06-20T08:01:07.842Z,100392
2019-06-20T08:02:08.233Z,100392
2019-06-20T08:03:07.639Z,100395
2019-06-20T08:04:08.111Z,100400
2019-06-20T08:05:07.638Z,100401
2019-06-20T08:06:08.254Z,100397
2019-06-20T08:07:07.560Z,100398
2019-06-20T08:08:07.921Z,100404
2019-06-20T08:09:08.279Z,100408
2019-06-20T08:10:07.830Z,100404
2019-06-20T08:11:07.505Z,100409
2019-06-20T08:12:07.738Z,100411
2019-06-20T08:13:08.055Z,100408
2019-06-20T08:14:07.428Z,100412
2019-06-20T08:15:19.370Z,100408
2019-06-20T08:16:08.403Z,100416
2019-06-20T08:17:07.655Z,100416
2019-06-20T08:18:08.012Z,100410
2019-06-20T08:19:07.356Z,100412
2019-06-20T08:20:07.606Z,100418
2019-06-20T08:21:07.988Z,100425
2019-06-20T08:22:07.379Z,100418
2019-06-20T08:23:07.678Z,100422
2019-06-20T08:24:08.044Z,100429
2019-06-20T08:25:08.127Z,100433
2019-06-20T08:26:09.671Z,100435
2019-06-20T08:27:09.533Z,100434
2019-06-20T08:28:09.364Z,100435
2019-06-20T08:29:24.277Z,100437
2019-06-20T08:30:10.057Z,100436
2019-06-20T08:31:09.592Z,100436
2019-06-20T08:32:09.365Z,100435
2019-06-20T08:33:15.002Z,100440
2019-06-20T08:34:09.305Z,100433
2019-06-20T08:35:09.197Z,100429
2019-06-20T08:36:09.477Z,100443
2019-06-20T08:37:09.168Z,100430
2019-06-20T08:38:10.353Z,100443
2019-06-20T08:39:09.285Z,100440
2019-06-20T08:40:09.282Z,100440
2019-06-20T08:41:09.454Z,100434
2019-06-20T08:42:09.139Z,100445
2019-06-20T08:43:09.063Z,100434
2019-06-20T08:44:08.893Z,100439
2019-06-20T08:45:08.787Z,100432
2019-06-20T08:46:13.272Z,100433
2019-06-20T08:47:08.779Z,100428
2019-06-20T08:48:10.278Z,100436
2019-06-20T08:49:08.550Z,100428
2019-06-20T08:50:08.765Z,100432
2019-06-20T08:51:09.311Z,100428
2019-06-20T08:52:09.870Z,100430
2019-06-20T08:53:10.108Z,100429
2019-06-20T08:54:08.148Z,100429
2019-06-20T08:55:08.119Z,100428
2019-06-20T08:56:08.310Z,100435
2019-06-20T08:57:09.909Z,100426
2019-06-20T08:58:09.967Z,100429
2019-06-20T08:59:20.656Z,100432
2019-06-20T09:00:09.431Z,100437
2019-06-20T09:01:09.595Z,100437
2019-06-20T09:02:08.122Z,100432
2019-06-20T09:03:07.576Z,100432
2019-06-20T09:04:07.874Z,100431
2019-06-20T09:05:08.527Z,100436
2019-06-20T09:06:08.057Z,100443
2019-06-20T09:07:08.671Z,100434
2019-06-20T09:08:10.914Z,100437
2019-06-20T09:09:08.603Z,100446
2019-06-20T09:10:08.352Z,100435
2019-06-20T09:11:08.537Z,100439
2019-06-20T09:12:09.475Z,100432
2019-06-20T09:13:08.144Z,100438
2019-06-20T09:14:08.492Z,100434
2019-06-20T09:15:08.405Z,100443
2019-06-20T09:16:07.757Z,100446
2019-06-20T09:17:07.659Z,100442
2019-06-20T09:18:08.049Z,100455
2019-06-20T09:19:07.476Z,100441
2019-06-20T09:20:08.181Z,100445
2019-06-20T09:21:08.058Z,100447
2019-06-20T09:22:09.332Z,100452
2019-06-20T09:23:07.681Z,100453
2019-06-20T09:24:08.299Z,100454
2019-06-20T09:25:07.734Z,100448
2019-06-20T09:26:08.054Z,100451
2019-06-20T09:27:08.780Z,100449
2019-06-20T09:28:08.545Z,100450
2019-06-20T09:29:08.245Z,100447
2019-06-20T09:30:07.835Z,100446
2019-06-20T09:31:08.397Z,100439
2019-06-20T09:32:09.032Z,100443
2019-06-20T09:33:09.110Z,100439
2019-06-20T09:34:09.886Z,100438
2019-06-20T09:35:08.490Z,100439
2019-06-20T09:36:08.188Z,100435
2019-06-20T09:37:08.389Z,100436
2019-06-20T09:38:07.772Z,100437
2019-06-20T09:39:08.121Z,100448
2019-06-20T09:40:07.802Z,100445
2019-06-20T09:41:08.086Z,100442
2019-06-20T09:42:07.486Z,100441
2019-06-20T09:43:07.862Z,100440
2019-06-20T09:44:08.499Z,100452
2019-06-20T09:45:08.182Z,100443
2019-06-20T09:46:07.451Z,100445
2019-06-20T09:47:08.071Z,100439
2019-06-20T09:48:07.407Z,100446
2019-06-20T09:49:07.705Z,100440
2019-06-20T09:50:08.308Z,100439
2019-06-20T09:51:07.677Z,100441
2019-06-20T09:52:08.101Z,100449
2019-06-20T09:53:07.350Z,100439
2019-06-20T09:54:07.665Z,100437
2019-06-20T09:55:08.158Z,100442
2019-06-20T09:56:07.552Z,100440
2019-06-20T09:57:07.895Z,100445
2019-06-20T09:58:08.302Z,100444
2019-06-20T09:59:07.740Z,100449
2019-06-20T10:00:14.640Z,100446
2019-06-20T10:01:08.019Z,100443
2019-06-20T10:02:07.372Z,100451
2019-06-20T10:03:07.996Z,100440
2019-06-20T10:04:07.973Z,100445
2019-06-20T10:05:09.798Z,100442
2019-06-20T10:06:17.799Z,100440
2019-06-20T10:07:07.990Z,100447
2019-06-20T10:08:08.849Z,100439
2019-06-20T10:09:07.888Z,100441
2019-06-20T10:10:08.548Z,100447
2019-06-20T10:11:07.880Z,100433
2019-06-20T10:12:08.216Z,100446
2019-06-20T10:13:07.565Z,100445
2019-06-20T10:14:08.059Z,100442
2019-06-20T10:15:07.531Z,100444
2019-06-20T10:16:08.226Z,100445
2019-06-20T10:17:07.640Z,100442
2019-06-20T10:18:07.935Z,100443
2019-06-20T10:19:07.258Z,100445
2019-06-20T10:20:08.232Z,100444
2019-06-20T10:21:07.976Z,100453
2019-06-20T10:22:07.230Z,100453
2019-06-20T10:23:07.477Z,100455
2019-06-20T10:24:07.933Z,100453
2019-06-20T10:25:08.049Z,100449
2019-06-20T10:26:07.707Z,100444
2019-06-20T10:27:08.040Z,100443
2019-06-20T10:28:07.436Z,100441
2019-06-20T10:29:07.916Z,100446
2019-06-20T10:30:18.258Z,100452
2019-06-20T10:31:07.743Z,100446
2019-06-20T10:32:08.121Z,100445
2019-06-20T10:33:07.722Z,100447
2019-06-20T10:34:09.638Z,100448
2019-06-20T10:35:08.295Z,100443
2019-06-20T10:36:07.785Z,100435
2019-06-20T10:37:09.409Z,100434
2019-06-20T10:38:07.811Z,100434
2019-06-20T10:39:08.232Z,100428
2019-06-20T10:40:07.806Z,100432
2019-06-20T10:41:08.190Z,100435
2019-06-20T10:42:07.993Z,100433
2019-06-20T10:43:07.958Z,100442
2019-06-20T10:44:07.363Z,100444
2019-06-20T10:45:07.954Z,100446
2019-06-20T10:46:07.226Z,100447
2019-06-20T10:47:07.516Z,100455
2019-06-20T10:48:07.840Z,100465
2019-06-20T10:49:08.251Z,100458
2019-06-20T10:50:07.815Z,100452
2019-06-20T10:51:08.633Z,100466
2019-06-20T10:52:08.210Z,100468
2019-06-20T10:53:08.383Z,100460
2019-06-20T10:54:07.854Z,100466
2019-06-20T10:55:08.612Z,100455
2019-06-20T10:56:08.008Z,100465
2019-06-20T10:57:07.443Z,100463
2019-06-20T10:58:08.442Z,100462
2019-06-20T10:59:08.216Z,100458
2019-06-20T11:00:07.833Z,100458
2019-06-20T11:01:07.862Z,100461
2019-06-20T11:02:11.543Z,100474
2019-06-20T11:03:07.916Z,100469
2019-06-20T11:04:07.324Z,100466
2019-06-20T11:05:07.901Z,100460
2019-06-20T11:06:08.222Z,100466
2019-06-20T11:07:07.577Z,100472
2019-06-20T11:08:07.992Z,100464
2019-06-20T11:09:07.329Z,100472
2019-06-20T11:10:08.298Z,100463
2019-06-20T11:11:07.715Z,100468
2019-06-20T11:12:08.019Z,100475
2019-06-20T11:13:07.400Z,100474
2019-06-20T11:14:08.251Z,100467
2019-06-20T11:15:07.859Z,100485
2019-06-20T11:16:08.146Z,100483
2019-06-20T11:17:08.758Z,100475
2019-06-20T11:18:08.069Z,100472
2019-06-20T11:19:07.619Z,100475
2019-06-20T11:20:08.212Z,100472
2019-06-20T11:21:07.593Z,100476
2019-06-20T11:22:07.904Z,100471
2019-06-20T11:23:07.293Z,100465
2019-06-20T11:24:07.636Z,100476
2019-06-20T11:25:08.179Z,100470
2019-06-20T11:26:07.528Z,100468
2019-06-20T11:27:08.551Z,100463
2019-06-20T11:28:08.212Z,100453
2019-06-20T11:29:07.987Z,100464
2019-06-20T11:30:08.042Z,100459
2019-06-20T11:31:07.445Z,100455
2019-06-20T11:32:07.727Z,100449
2019-06-20T11:33:07.996Z,100452
2019-06-20T11:34:07.308Z,100458
2019-06-20T11:35:07.890Z,100471
2019-06-20T11:36:08.207Z,100456
2019-06-20T11:37:07.489Z,100463
2019-06-20T11:38:07.825Z,100464
2019-06-20T11:39:08.157Z,100471
2019-06-20T11:40:07.778Z,100454
2019-06-20T11:41:08.546Z,100469
2019-06-20T11:42:07.912Z,100463
2019-06-20T11:43:08.177Z,100467
2019-06-20T11:44:07.467Z,100476
2019-06-20T11:45:07.922Z,100476
2019-06-20T11:46:07.401Z,100470
2019-06-20T11:47:07.673Z,100470
2019-06-20T11:48:07.970Z,100475
2019-06-20T11:49:07.390Z,100477
2019-06-20T11:50:08.044Z,100474
2019-06-20T11:51:07.417Z,100477
2019-06-20T11:52:08.307Z,100473
2019-06-20T11:53:07.628Z,100474
2019-06-20T11:54:07.959Z,100485
2019-06-20T11:55:07.382Z,100475
2019-06-20T11:56:07.777Z,100483
2019-06-20T11:57:08.069Z,100473
2019-06-20T11:58:07.425Z,100482
2019-06-20T11:59:07.741Z,100476
2019-06-20T12:00:08.274Z,100476
2019-06-20T12:01:08.414Z,100476
2019-06-20T12:02:07.726Z,100476
2019-06-20T12:03:08.119Z,100474
2019-06-20T12:04:10.774Z,100471
2019-06-20T12:05:08.192Z,100480
2019-06-20T12:06:07.611Z,100468
2019-06-20T12:07:07.882Z,100473
2019-06-20T12:08:08.206Z,100470
2019-06-20T12:09:07.512Z,100472
2019-06-20T12:10:08.049Z,100474
2019-06-20T12:11:07.429Z,100478
2019-06-20T12:12:07.780Z,100474
2019-06-20T12:13:08.054Z,100470
2019-06-20T12:14:07.394Z,100472
2019-06-20T12:15:11.388Z,100474
2019-06-20T12:16:07.908Z,100473
2019-06-20T12:17:07.280Z,100483
2019-06-20T12:18:07.587Z,100482
2019-06-20T12:19:07.949Z,100479
2019-06-20T12:20:08.475Z,100482
2019-06-20T12:21:07.965Z,100486
2019-06-20T12:22:07.317Z,100487
2019-06-20T12:23:07.569Z,100487
2019-06-20T12:24:11.364Z,100487
2019-06-20T12:25:07.779Z,100485
2019-06-20T12:26:08.182Z,100487
2019-06-20T12:27:07.535Z,100483
2019-06-20T12:28:07.820Z,100487